createdAt,value
2023-02-27T00:01:40.116Z,51.98
2023-02-27T00:04:06.420Z,52.37
2023-02-27T00:06:35.531Z,51.87
2023-02-27T00:09:01.865Z,51.80
2023-02-27T00:11:28.655Z,51.77
2023-02-27T00:13:55.131Z,52.25
2023-02-27T00:16:21.467Z,52.19
2023-02-27T00:18:47.734Z,52.18
2023-02-27T00:21:13.990Z,52.17
2023-02-27T00:23:40.245Z,52.43
2023-02-27T00:26:06.503Z,52.31
2023-02-27T00:28:32.757Z,52.38
2023-02-27T00:30:59.106Z,51.99
2023-02-27T00:33:25.421Z,52.30
2023-02-27T00:35:51.681Z,52.85
2023-02-27T00:38:17.923Z,53.40
2023-02-27T00:40:44.171Z,53.84
2023-02-27T00:43:10.406Z,53.22
2023-02-27T00:45:36.672Z,53.04
2023-02-27T00:48:02.959Z,53.60
2023-02-27T00:50:29.252Z,53.80
2023-02-27T00:52:55.518Z,53.79
2023-02-27T00:55:21.771Z,52.99
2023-02-27T00:57:48.053Z,52.96
2023-02-27T01:00:14.438Z,53.26
2023-02-27T01:02:40.720Z,52.88
2023-02-27T01:05:06.993Z,53.48
2023-02-27T01:07:33.374Z,53.28
2023-02-27T01:09:59.625Z,53.33
2023-02-27T01:12:25.873Z,52.88
2023-02-27T01:14:52.119Z,53.37
2023-02-27T01:17:18.352Z,53.19
2023-02-27T01:19:44.615Z,52.58
2023-02-27T01:22:10.877Z,53.10
2023-02-27T01:24:37.128Z,52.50
2023-02-27T01:27:03.397Z,53.25
2023-02-27T01:29:29.640Z,53.13
2023-02-27T01:31:56.014Z,52.85
2023-02-27T01:34:22.321Z,53.15
2023-02-27T01:36:48.588Z,52.74
2023-02-27T01:39:14.832Z,53.01
2023-02-27T01:41:41.103Z,52.51
2023-02-27T01:44:07.382Z,52.15
2023-02-27T01:46:33.643Z,52.77
2023-02-27T01:48:59.906Z,52.23
2023-02-27T01:51:26.448Z,52.62
2023-02-27T01:53:52.838Z,52.31
2023-02-27T01:56:19.082Z,52.15
2023-02-27T01:58:45.327Z,52.52
2023-02-27T02:01:11.637Z,52.46
2023-02-27T02:03:37.928Z,53.02
2023-02-27T02:06:04.194Z,52.65
2023-02-27T02:08:30.452Z,53.13
2023-02-27T02:10:56.722Z,52.47
2023-02-27T02:13:22.972Z,52.87
2023-02-27T02:15:49.236Z,52.66
2023-02-27T02:18:15.474Z,52.63
2023-02-27T02:20:41.734Z,52.34
2023-02-27T02:23:07.990Z,53.05
2023-02-27T02:25:34.253Z,52.77
2023-02-27T02:28:00.509Z,53.38
2023-02-27T02:30:26.827Z,52.87
2023-02-27T02:32:53.138Z,53.12
2023-02-27T02:35:19.388Z,52.92
2023-02-27T02:37:45.628Z,53.28
2023-02-27T02:40:11.872Z,52.99
2023-02-27T02:42:38.150Z,52.91
2023-02-27T02:45:04.404Z,53.63
2023-02-27T02:47:30.643Z,53.11
2023-02-27T02:49:56.911Z,53.27
2023-02-27T02:52:26.026Z,53.46
2023-02-27T02:54:52.301Z,53.26
2023-02-27T02:57:18.542Z,52.61
2023-02-27T02:59:44.789Z,52.53
2023-02-27T03:02:11.026Z,52.80
2023-02-27T03:04:37.344Z,53.44
2023-02-27T03:07:03.609Z,53.21
2023-02-27T03:09:29.898Z,52.68
2023-02-27T03:11:56.146Z,52.94
2023-02-27T03:14:22.387Z,52.72
2023-02-27T03:16:48.669Z,52.93
2023-02-27T03:19:14.917Z,53.39
2023-02-27T03:21:41.195Z,53.24
2023-02-27T03:24:07.457Z,53.26
2023-02-27T03:26:33.726Z,52.83
2023-02-27T03:28:59.967Z,53.74
2023-02-27T03:31:26.734Z,53.32
2023-02-27T03:33:53.218Z,52.65
2023-02-27T03:36:19.466Z,53.03
2023-02-27T03:38:45.705Z,53.21
2023-02-27T03:41:11.967Z,53.37
2023-02-27T03:43:38.223Z,53.67
2023-02-27T03:46:04.496Z,53.84
2023-02-27T03:48:30.774Z,53.48
2023-02-27T03:50:57.020Z,53.16
2023-02-27T03:53:23.280Z,53.01
2023-02-27T03:55:49.535Z,53.68
2023-02-27T03:58:15.800Z,53.43
2023-02-27T04:00:42.061Z,53.15
2023-02-27T04:03:08.350Z,53.08
2023-02-27T04:05:34.602Z,54.01
2023-02-27T04:08:00.864Z,53.60
2023-02-27T04:10:27.140Z,53.67
2023-02-27T04:12:53.456Z,53.39
2023-02-27T04:15:19.699Z,53.63
2023-02-27T04:17:45.953Z,53.59
2023-02-27T04:20:12.208Z,53.64
2023-02-27T04:22:38.470Z,53.90
2023-02-27T04:25:04.733Z,53.80
2023-02-27T04:27:30.993Z,54.31
2023-02-27T04:29:57.252Z,53.85
2023-02-27T04:32:23.572Z,53.43
2023-02-27T04:34:49.868Z,54.02
2023-02-27T04:37:16.112Z,54.21
2023-02-27T04:39:42.457Z,53.18
2023-02-27T04:42:08.702Z,53.65
2023-02-27T04:44:34.963Z,53.52
2023-02-27T04:47:01.225Z,53.55
2023-02-27T04:49:27.461Z,53.78
2023-02-27T04:51:53.721Z,54.21
2023-02-27T04:54:19.961Z,54.71
2023-02-27T04:56:46.201Z,54.78
2023-02-27T04:59:12.450Z,54.50
2023-02-27T05:01:38.755Z,54.48
2023-02-27T05:04:05.016Z,54.68
2023-02-27T05:06:31.293Z,54.17
2023-02-27T05:08:57.572Z,54.65
2023-02-27T05:11:23.841Z,54.12
2023-02-27T05:13:50.096Z,54.39
2023-02-27T05:16:16.396Z,54.25
2023-02-27T05:18:42.658Z,54.34
2023-02-27T05:21:08.922Z,54.28
2023-02-27T05:23:35.185Z,53.97
2023-02-27T05:26:01.442Z,54.74
2023-02-27T05:28:27.697Z,55.14
2023-02-27T05:30:53.945Z,54.97
2023-02-27T05:33:20.206Z,54.82
2023-02-27T05:35:46.492Z,54.62
2023-02-27T05:38:12.741Z,54.74
2023-02-27T05:40:39.003Z,54.76
2023-02-27T05:43:06.453Z,54.18
2023-02-27T05:45:32.742Z,54.54
2023-02-27T05:47:59.010Z,54.59
2023-02-27T05:50:25.264Z,54.99
2023-02-27T05:52:51.523Z,54.55
2023-02-27T05:55:18.932Z,54.35
2023-02-27T05:57:45.304Z,54.64
2023-02-27T06:00:11.561Z,54.22
2023-02-27T06:02:37.811Z,53.75
2023-02-27T06:05:04.060Z,53.76
2023-02-27T06:07:30.294Z,53.79
2023-02-27T06:09:56.542Z,54.60
2023-02-27T06:12:22.778Z,54.42
2023-02-27T06:14:49.127Z,54.46
2023-02-27T06:17:15.398Z,54.66
2023-02-27T06:19:41.675Z,54.28
2023-02-27T06:22:07.914Z,54.20
2023-02-27T06:24:34.157Z,54.15
2023-02-27T06:27:00.498Z,54.60
2023-02-27T06:29:26.752Z,54.26
2023-02-27T06:31:53.077Z,54.33
2023-02-27T06:34:19.357Z,53.75
2023-02-27T06:36:45.621Z,53.43
2023-02-27T06:39:11.875Z,53.88
2023-02-27T06:41:38.148Z,54.19
2023-02-27T06:44:04.428Z,53.85
2023-02-27T06:46:30.938Z,54.40
2023-02-27T06:48:57.291Z,54.47
2023-02-27T06:51:23.634Z,53.77
2023-02-27T06:53:50.015Z,53.63
2023-02-27T06:56:16.274Z,54.14
2023-02-27T06:58:42.540Z,53.75
2023-02-27T07:01:08.821Z,53.68
2023-02-27T07:03:35.091Z,53.71
2023-02-27T07:06:01.349Z,54.20
2023-02-27T07:08:27.765Z,53.86
2023-02-27T07:10:54.007Z,53.77
2023-02-27T07:13:20.273Z,54.11
2023-02-27T07:15:46.570Z,53.88
2023-02-27T07:18:12.909Z,54.36
2023-02-27T07:20:39.186Z,53.88
2023-02-27T07:23:05.430Z,53.76
2023-02-27T07:25:31.680Z,53.35
2023-02-27T07:27:57.946Z,54.08
2023-02-27T07:30:24.188Z,53.76
2023-02-27T07:32:50.430Z,53.61
2023-02-27T07:35:16.697Z,53.63
2023-02-27T07:37:42.942Z,53.87
2023-02-27T07:40:09.226Z,53.60
2023-02-27T07:42:35.513Z,53.77
2023-02-27T07:45:01.769Z,53.96
2023-02-27T07:47:28.054Z,53.63
2023-02-27T07:49:54.311Z,53.87
2023-02-27T07:52:20.550Z,54.04
2023-02-27T07:54:46.805Z,54.13
2023-02-27T07:57:13.062Z,53.58
2023-02-27T07:59:39.306Z,53.23
2023-02-27T08:02:05.586Z,53.11
2023-02-27T08:04:31.908Z,53.39
2023-02-27T08:06:58.284Z,52.53
2023-02-27T08:09:24.533Z,52.96
2023-02-27T08:11:50.790Z,53.15
2023-02-27T08:14:17.044Z,53.08
2023-02-27T08:16:43.331Z,52.29
2023-02-27T08:19:09.577Z,52.57
2023-02-27T08:21:35.853Z,52.04
2023-02-27T08:24:02.099Z,52.22
2023-02-27T08:26:28.624Z,52.22
2023-02-27T08:28:55.114Z,52.92
2023-02-27T08:31:21.451Z,51.78
2023-02-27T08:33:49.626Z,51.59
2023-02-27T08:36:19.374Z,51.69
2023-02-27T08:38:45.786Z,50.89
2023-02-27T08:41:12.146Z,51.85
2023-02-27T08:43:38.390Z,51.98
2023-02-27T08:46:04.745Z,51.66
2023-02-27T08:48:31.013Z,51.37
2023-02-27T08:50:57.992Z,51.06
2023-02-27T08:53:24.313Z,51.95
2023-02-27T08:55:50.602Z,51.47
2023-02-27T08:58:18.107Z,50.86
2023-02-27T09:00:44.456Z,50.49
2023-02-27T09:03:10.709Z,50.84
2023-02-27T09:05:36.969Z,50.60
2023-02-27T09:08:03.221Z,51.06
2023-02-27T09:10:29.478Z,51.23
2023-02-27T09:12:55.726Z,51.41
2023-02-27T09:15:21.988Z,49.78
2023-02-27T09:17:48.230Z,50.23
2023-02-27T09:20:14.514Z,49.99
2023-02-27T09:22:40.765Z,50.01
2023-02-27T09:25:07.010Z,50.29
2023-02-27T09:27:33.262Z,50.50
2023-02-27T09:29:59.570Z,50.51
2023-02-27T09:32:25.909Z,51.04
2023-02-27T09:34:52.261Z,49.88
2023-02-27T09:37:18.546Z,50.10
2023-02-27T09:39:46.322Z,50.01
2023-02-27T09:42:12.707Z,49.56
2023-02-27T09:44:47.542Z,50.03
2023-02-27T09:47:13.983Z,50.08
2023-02-27T09:49:40.249Z,49.52
2023-02-27T09:52:06.508Z,50.34
2023-02-27T09:54:32.774Z,50.57
2023-02-27T09:56:59.042Z,49.70
2023-02-27T09:59:25.292Z,49.18
2023-02-27T10:01:51.558Z,49.77
2023-02-27T10:04:17.828Z,49.48
2023-02-27T10:06:44.095Z,49.30
2023-02-27T10:09:10.375Z,49.14
2023-02-27T10:11:36.632Z,49.01
2023-02-27T10:14:02.890Z,48.34
2023-02-27T10:16:29.584Z,48.62
2023-02-27T10:18:56.087Z,49.26
2023-02-27T10:21:22.351Z,48.10
2023-02-27T10:23:48.605Z,49.21
2023-02-27T10:26:14.859Z,48.93
2023-02-27T10:28:41.111Z,48.80
2023-02-27T10:31:07.422Z,49.19
2023-02-27T10:33:33.797Z,48.59
2023-02-27T10:36:02.137Z,48.63
2023-02-27T10:38:29.439Z,47.80
2023-02-27T10:40:55.692Z,48.43
2023-02-27T10:43:21.942Z,47.71
2023-02-27T10:45:48.206Z,47.74
2023-02-27T10:48:14.472Z,48.22
2023-02-27T10:50:40.742Z,48.01
2023-02-27T10:53:07.023Z,48.44
2023-02-27T10:55:33.285Z,48.87
2023-02-27T10:57:59.532Z,48.73
2023-02-27T11:00:25.787Z,49.05
2023-02-27T11:02:52.056Z,48.45
2023-02-27T11:05:18.316Z,48.40
2023-02-27T11:07:44.562Z,48.39
2023-02-27T11:10:10.802Z,47.70
2023-02-27T11:12:37.047Z,47.64
2023-02-27T11:15:03.313Z,48.06
2023-02-27T11:17:29.565Z,47.65
2023-02-27T11:19:55.828Z,48.12
2023-02-27T11:22:22.081Z,47.97
2023-02-27T11:24:48.320Z,47.75
2023-02-27T11:27:14.589Z,47.18
2023-02-27T11:29:40.842Z,46.61
2023-02-27T11:32:07.167Z,48.29
2023-02-27T11:34:33.421Z,46.75
2023-02-27T11:36:59.671Z,47.83
2023-02-27T11:39:25.923Z,47.32
2023-02-27T11:41:52.166Z,47.60
2023-02-27T11:44:18.691Z,47.29
2023-02-27T11:47:00.393Z,47.57
2023-02-27T11:49:26.643Z,47.16
2023-02-27T11:51:52.884Z,47.48
2023-02-27T11:54:19.162Z,48.05
2023-02-27T11:56:45.413Z,47.36
2023-02-27T11:59:11.673Z,47.95
2023-02-27T12:01:37.943Z,47.54
2023-02-27T12:04:04.225Z,47.88
2023-02-27T12:06:30.515Z,47.76
2023-02-27T12:08:56.779Z,48.24
2023-02-27T12:11:23.032Z,48.84
2023-02-27T12:13:49.274Z,47.89
2023-02-27T12:16:15.565Z,47.55
2023-02-27T12:18:41.828Z,47.61
2023-02-27T12:21:08.104Z,47.94
2023-02-27T12:23:34.358Z,48.19
2023-02-27T12:26:00.626Z,48.11
2023-02-27T12:28:26.986Z,47.43
2023-02-27T12:30:53.244Z,47.72
2023-02-27T12:33:19.486Z,47.98
2023-02-27T12:35:45.748Z,47.21
2023-02-27T12:38:12.013Z,47.65
2023-02-27T12:40:38.284Z,48.03
2023-02-27T12:43:04.531Z,48.14
2023-02-27T12:45:30.913Z,48.25
2023-02-27T12:47:57.170Z,49.01
2023-02-27T12:50:23.445Z,48.92
2023-02-27T12:52:49.703Z,47.99
2023-02-27T12:55:15.957Z,48.39
2023-02-27T12:57:42.203Z,47.83
2023-02-27T13:00:08.492Z,47.98
2023-02-27T13:02:34.746Z,47.53
2023-02-27T13:05:00.999Z,47.70
2023-02-27T13:07:27.273Z,47.72
2023-02-27T13:09:53.543Z,47.88
2023-02-27T13:12:19.784Z,48.13
2023-02-27T13:14:46.077Z,48.38
2023-02-27T13:17:12.372Z,48.47
2023-02-27T13:19:38.630Z,47.99
2023-02-27T13:22:04.886Z,48.34
2023-02-27T13:24:31.145Z,47.36
2023-02-27T13:26:57.399Z,48.20
2023-02-27T13:29:24.855Z,47.49
2023-02-27T13:31:51.221Z,47.56
2023-02-27T13:34:17.540Z,46.63
2023-02-27T13:36:43.814Z,47.19
2023-02-27T13:39:10.091Z,46.79
2023-02-27T13:41:36.375Z,47.47
2023-02-27T13:44:02.642Z,47.76
2023-02-27T13:46:28.910Z,47.91
2023-02-27T13:48:55.161Z,48.95
2023-02-27T13:51:21.421Z,48.22
2023-02-27T13:53:47.682Z,48.10
2023-02-27T13:56:13.918Z,47.42
2023-02-27T13:58:40.208Z,47.15
2023-02-27T14:01:06.493Z,47.93
2023-02-27T14:03:32.765Z,47.71
2023-02-27T14:05:59.022Z,47.69
2023-02-27T14:08:25.284Z,46.75
2023-02-27T14:10:51.551Z,46.38
2023-02-27T14:13:17.819Z,47.63
2023-02-27T14:15:44.091Z,46.25
2023-02-27T14:18:20.094Z,46.67
2023-02-27T14:20:49.145Z,46.92
2023-02-27T14:23:15.482Z,47.49
2023-02-27T14:25:41.761Z,47.11
2023-02-27T14:28:08.004Z,47.33
2023-02-27T14:30:34.270Z,47.08
2023-02-27T14:33:00.538Z,47.42
2023-02-27T14:35:26.832Z,48.35
2023-02-27T14:37:53.135Z,48.09
2023-02-27T14:40:29.161Z,47.14
2023-02-27T14:42:55.862Z,48.13
2023-02-27T14:45:24.258Z,48.21
2023-02-27T14:47:50.701Z,48.77
2023-02-27T14:50:16.986Z,49.15
2023-02-27T14:52:43.255Z,48.64
2023-02-27T14:55:09.497Z,49.27
2023-02-27T14:57:35.755Z,49.12
2023-02-27T15:00:02.133Z,49.00
2023-02-27T15:02:28.430Z,47.81
2023-02-27T15:04:54.760Z,47.96
2023-02-27T15:07:21.102Z,48.16
2023-02-27T15:09:47.362Z,48.79
2023-02-27T15:12:13.609Z,48.83
2023-02-27T15:14:39.906Z,48.88
2023-02-27T15:17:06.195Z,49.08
2023-02-27T15:19:32.468Z,48.77
2023-02-27T15:21:58.811Z,49.08
2023-02-27T15:24:25.105Z,49.18
2023-02-27T15:26:51.379Z,49.69
2023-02-27T15:29:17.640Z,49.23
2023-02-27T15:31:43.969Z,48.90
2023-02-27T15:34:10.334Z,48.17
2023-02-27T15:36:36.609Z,48.92
2023-02-27T15:39:02.874Z,49.35
2023-02-27T15:41:29.310Z,49.78
2023-02-27T15:43:55.827Z,50.54
2023-02-27T15:46:22.097Z,50.28
2023-02-27T15:48:48.361Z,50.16
2023-02-27T15:51:14.633Z,50.76
2023-02-27T15:53:42.806Z,50.60
2023-02-27T15:56:09.140Z,50.76
2023-02-27T15:58:35.485Z,51.80
2023-02-27T16:01:01.974Z,51.41
2023-02-27T16:03:28.289Z,50.97
2023-02-27T16:05:54.582Z,51.61
2023-02-27T16:08:20.874Z,52.31
2023-02-27T16:10:47.133Z,52.20
2023-02-27T16:13:13.396Z,51.78
2023-02-27T16:15:39.645Z,52.06
2023-02-27T16:18:05.886Z,51.86
2023-02-27T16:20:32.153Z,51.89
2023-02-27T16:22:58.398Z,52.07
2023-02-27T16:25:24.652Z,52.29
2023-02-27T16:27:50.923Z,52.53
2023-02-27T16:30:17.199Z,52.78
2023-02-27T16:32:43.512Z,52.84
2023-02-27T16:35:09.829Z,52.66
2023-02-27T16:37:36.113Z,52.97
2023-02-27T16:40:02.547Z,53.58
2023-02-27T16:42:28.806Z,52.86
2023-02-27T16:44:55.047Z,53.35
2023-02-27T16:47:21.302Z,53.06
2023-02-27T16:49:47.565Z,53.21
2023-02-27T16:52:13.854Z,54.07
2023-02-27T16:54:40.105Z,53.74
2023-02-27T16:57:06.372Z,53.50
2023-02-27T16:59:32.626Z,54.22
2023-02-27T17:01:58.894Z,53.81
2023-02-27T17:04:26.180Z,54.24
2023-02-27T17:06:52.544Z,54.36
2023-02-27T17:09:18.819Z,54.85
2023-02-27T17:11:45.078Z,55.08
2023-02-27T17:14:11.372Z,55.33
2023-02-27T17:16:37.683Z,56.16
2023-02-27T17:19:03.934Z,55.67
2023-02-27T17:21:30.197Z,55.53
2023-02-27T17:23:56.542Z,54.83
2023-02-27T17:26:22.801Z,54.98
2023-02-27T17:28:49.086Z,55.46
2023-02-27T17:31:15.393Z,54.95
2023-02-27T17:33:41.626Z,55.48
2023-02-27T17:36:07.873Z,55.42
2023-02-27T17:38:34.133Z,55.91
2023-02-27T17:41:00.385Z,56.23
2023-02-27T17:43:26.627Z,55.60
2023-02-27T17:45:52.905Z,55.55
2023-02-27T17:48:19.187Z,55.53
2023-02-27T17:50:45.452Z,56.11
2023-02-27T17:53:11.733Z,55.90
2023-02-27T17:55:39.283Z,56.27
2023-02-27T17:58:05.955Z,56.00
2023-02-27T18:00:32.205Z,56.26
2023-02-27T18:02:58.506Z,56.19
2023-02-27T18:05:24.784Z,56.41
2023-02-27T18:07:51.058Z,56.73
2023-02-27T18:10:17.321Z,55.82
2023-02-27T18:12:43.579Z,56.71
2023-02-27T18:15:09.826Z,56.26
2023-02-27T18:17:36.080Z,56.61
2023-02-27T18:20:02.360Z,55.94
2023-02-27T18:22:28.628Z,56.15
2023-02-27T18:24:54.884Z,56.07
2023-02-27T18:27:21.141Z,57.05
2023-02-27T18:29:47.417Z,56.94
2023-02-27T18:32:13.702Z,56.18
2023-02-27T18:34:40.015Z,56.93
2023-02-27T18:37:06.266Z,56.90
2023-02-27T18:39:32.515Z,57.13
2023-02-27T18:41:58.775Z,57.19
2023-02-27T18:44:25.050Z,56.78
2023-02-27T18:46:51.351Z,57.18
2023-02-27T18:49:17.615Z,57.84
2023-02-27T18:51:43.882Z,57.85
2023-02-27T18:54:10.131Z,57.40
2023-02-27T18:56:36.398Z,57.82
2023-02-27T18:59:02.668Z,57.09
2023-02-27T19:01:28.946Z,57.61
2023-02-27T19:03:55.249Z,56.74
2023-02-27T19:06:21.518Z,57.25
2023-02-27T19:08:47.791Z,57.31
2023-02-27T19:11:14.036Z,57.55
2023-02-27T19:13:40.291Z,57.37
2023-02-27T19:16:06.599Z,57.47
2023-02-27T19:18:32.879Z,56.99
2023-02-27T19:20:59.148Z,57.16
2023-02-27T19:23:25.406Z,58.02
2023-02-27T19:25:51.666Z,56.94
2023-02-27T19:28:17.926Z,56.75
2023-02-27T19:30:44.185Z,56.41
2023-02-27T19:33:10.429Z,56.92
2023-02-27T19:35:36.743Z,57.06
2023-02-27T19:38:03.046Z,57.23
2023-02-27T19:40:29.293Z,57.31
2023-02-27T19:42:55.563Z,56.89
2023-02-27T19:45:21.823Z,57.15
2023-02-27T19:47:48.083Z,57.31
2023-02-27T19:50:14.383Z,56.75
2023-02-27T19:52:40.660Z,57.30
2023-02-27T19:55:06.938Z,57.01
2023-02-27T19:57:33.181Z,56.25
2023-02-27T19:59:59.448Z,56.81
2023-02-27T20:02:25.710Z,57.42
2023-02-27T20:04:51.976Z,56.38
2023-02-27T20:07:18.241Z,56.30
2023-02-27T20:09:44.485Z,56.70
2023-02-27T20:12:10.754Z,57.01
2023-02-27T20:14:37.022Z,56.15
2023-02-27T20:17:03.276Z,56.40
2023-02-27T20:19:29.532Z,56.00
2023-02-27T20:21:55.828Z,56.27
2023-02-27T20:24:22.095Z,56.05
2023-02-27T20:26:48.360Z,57.08
2023-02-27T20:29:14.620Z,56.14
2023-02-27T20:31:40.913Z,56.23
2023-02-27T20:34:07.206Z,57.23
2023-02-27T20:36:33.496Z,57.28
2023-02-27T20:38:59.777Z,57.67
2023-02-27T20:41:29.045Z,57.30
2023-02-27T20:43:55.840Z,57.14
2023-02-27T20:46:22.191Z,58.12
2023-02-27T20:48:48.518Z,57.35
2023-02-27T20:51:14.781Z,57.46
2023-02-27T20:53:41.031Z,57.16
2023-02-27T20:56:07.297Z,56.84
2023-02-27T20:58:33.557Z,56.97
2023-02-27T21:00:59.829Z,56.89
2023-02-27T21:03:26.353Z,57.17
2023-02-27T21:05:53.901Z,56.61
2023-02-27T21:08:20.162Z,56.87
2023-02-27T21:10:46.414Z,55.93
2023-02-27T21:13:12.664Z,56.55
2023-02-27T21:15:38.940Z,56.52
2023-02-27T21:18:05.219Z,56.79
2023-02-27T21:20:31.541Z,57.04
2023-02-27T21:22:57.816Z,56.38
2023-02-27T21:25:24.078Z,56.38
2023-02-27T21:27:50.462Z,56.55
2023-02-27T21:30:16.715Z,56.75
2023-02-27T21:32:43.028Z,57.16
2023-02-27T21:35:09.317Z,56.49
2023-02-27T21:37:35.562Z,56.50
2023-02-27T21:40:01.847Z,56.63
2023-02-27T21:42:28.105Z,57.10
2023-02-27T21:44:54.367Z,57.38
2023-02-27T21:47:20.630Z,57.29
2023-02-27T21:49:48.002Z,57.30
2023-02-27T21:52:14.266Z,57.68
2023-02-27T21:54:40.512Z,57.34
2023-02-27T21:57:06.753Z,58.13
2023-02-27T21:59:33.001Z,58.08
2023-02-27T22:01:59.397Z,57.77
2023-02-27T22:04:25.722Z,57.55
2023-02-27T22:06:51.967Z,58.00
2023-02-27T22:09:18.209Z,57.92
2023-02-27T22:11:44.450Z,57.69
2023-02-27T22:14:10.721Z,57.97
2023-02-27T22:16:36.970Z,57.38
2023-02-27T22:19:03.219Z,57.45
2023-02-27T22:21:29.858Z,57.44
2023-02-27T22:23:56.434Z,56.90
2023-02-27T22:26:22.710Z,57.38
2023-02-27T22:28:48.969Z,57.20
2023-02-27T22:31:15.272Z,58.05
2023-02-27T22:33:41.562Z,57.71
2023-02-27T22:36:07.814Z,58.07
2023-02-27T22:38:34.120Z,57.63
2023-02-27T22:41:00.378Z,57.71
2023-02-27T22:43:26.642Z,57.19
2023-02-27T22:45:52.907Z,57.83
2023-02-27T22:48:19.154Z,57.83
2023-02-27T22:50:45.516Z,57.64
2023-02-27T22:53:11.757Z,57.73
2023-02-27T22:55:38.004Z,57.58
2023-02-27T22:58:04.271Z,57.52
2023-02-27T23:00:30.507Z,57.54
2023-02-27T23:02:56.769Z,58.01
2023-02-27T23:05:23.013Z,58.16
2023-02-27T23:07:49.261Z,57.87
2023-02-27T23:10:15.506Z,58.60
2023-02-27T23:12:41.779Z,58.34
2023-02-27T23:15:08.068Z,58.80
2023-02-27T23:17:34.329Z,58.45
2023-02-27T23:20:00.585Z,57.60
2023-02-27T23:22:26.840Z,57.67
2023-02-27T23:24:53.082Z,57.63
2023-02-27T23:27:25.754Z,57.83
2023-02-27T23:29:52.289Z,57.37
2023-02-27T23:32:18.584Z,57.87
2023-02-27T23:34:49.679Z,57.18
2023-02-27T23:37:16.231Z,57.97
2023-02-27T23:39:42.480Z,57.59
2023-02-27T23:42:08.730Z,57.63
2023-02-27T23:44:34.982Z,57.06
2023-02-27T23:47:01.278Z,57.83
2023-02-27T23:49:27.537Z,57.92
2023-02-27T23:51:53.783Z,57.83
2023-02-27T23:54:20.040Z,58.08
2023-02-27T23:56:46.302Z,57.90
2023-02-27T23:59:12.564Z,58.77
